sensor_id;sensor_type;location;lat;lon;timestamp;P1;durP1;ratioP1;P2;durP2;ratioP2
37847;SDS011;23688;33.130;-117.188;2023-02-28T00:00:36;3.13;;;1.13;;
37847;SDS011;23688;33.130;-117.188;2023-02-28T00:03:03;1.20;;;0.77;;
37847;SDS011;23688;33.130;-117.188;2023-02-28T00:05:29;4.15;;;0.95;;
37847;SDS011;23688;33.130;-117.188;2023-02-28T00:07:56;2.60;;;0.63;;
37847;SDS011;23688;33.130;-117.188;2023-02-28T00:10:24;4.55;;;0.80;;
37847;SDS011;23688;33.130;-117.188;2023-02-28T00:12:53;1.00;;;0.43;;
37847;SDS011;23688;33.130;-117.188;2023-02-28T00:15:22;6.25;;;0.90;;
37847;SDS011;23688;33.130;-117.188;2023-02-28T00:17:49;1.00;;;0.43;;
37847;SDS011;23688;33.130;-117.188;2023-02-28T00:20:15;2.97;;;1.00;;
37847;SDS011;23688;33.130;-117.188;2023-02-28T00:22:43;1.85;;;0.68;;
37847;SDS011;23688;33.130;-117.188;2023-02-28T00:25:13;2.20;;;0.57;;
37847;SDS011;23688;33.130;-117.188;2023-02-28T00:27:41;3.25;;;0.60;;
37847;SDS011;23688;33.130;-117.188;2023-02-28T00:30:09;3.20;;;0.98;;
37847;SDS011;23688;33.130;-117.188;2023-02-28T00:32:38;8.43;;;0.88;;
37847;SDS011;23688;33.130;-117.188;2023-02-28T00:35:05;3.80;;;0.85;;
37847;SDS011;23688;33.130;-117.188;2023-02-28T00:37:32;4.97;;;0.80;;
37847;SDS011;23688;33.130;-117.188;2023-02-28T00:39:59;4.85;;;0.77;;
37847;SDS011;23688;33.130;-117.188;2023-02-28T00:42:27;4.93;;;1.20;;
37847;SDS011;23688;33.130;-117.188;2023-02-28T00:44:54;4.43;;;0.80;;
37847;SDS011;23688;33.130;-117.188;2023-02-28T00:47:20;1.88;;;0.68;;
37847;SDS011;23688;33.130;-117.188;2023-02-28T00:49:46;1.27;;;0.57;;
37847;SDS011;23688;33.130;-117.188;2023-02-28T00:52:13;1.85;;;0.68;;
37847;SDS011;23688;33.130;-117.188;2023-02-28T00:54:39;3.70;;;1.20;;
37847;SDS011;23688;33.130;-117.188;2023-02-28T00:57:06;3.35;;;1.05;;
37847;SDS011;23688;33.130;-117.188;2023-02-28T00:59:32;9.27;;;1.08;;
37847;SDS011;23688;33.130;-117.188;2023-02-28T01:01:59;2.50;;;0.73;;
37847;SDS011;23688;33.130;-117.188;2023-02-28T01:04:25;5.07;;;1.00;;
37847;SDS011;23688;33.130;-117.188;2023-02-28T01:06:51;5.28;;;0.90;;
37847;SDS011;23688;33.130;-117.188;2023-02-28T01:09:18;3.38;;;0.70;;
37847;SDS011;23688;33.130;-117.188;2023-02-28T01:11:44;3.67;;;1.10;;
37847;SDS011;23688;33.130;-117.188;2023-02-28T01:14:12;7.45;;;0.80;;
37847;SDS011;23688;33.130;-117.188;2023-02-28T01:16:40;3.97;;;0.85;;
37847;SDS011;23688;33.130;-117.188;2023-02-28T01:19:07;4.22;;;0.82;;
37847;SDS011;23688;33.130;-117.188;2023-02-28T01:21:34;2.25;;;0.60;;
37847;SDS011;23688;33.130;-117.188;2023-02-28T01:24:01;6.95;;;0.90;;
37847;SDS011;23688;33.130;-117.188;2023-02-28T01:26:28;6.25;;;0.98;;
37847;SDS011;23688;33.130;-117.188;2023-02-28T01:28:55;1.60;;;0.88;;
37847;SDS011;23688;33.130;-117.188;2023-02-28T01:31:22;4.43;;;0.90;;
37847;SDS011;23688;33.130;-117.188;2023-02-28T01:33:49;3.17;;;1.00;;
37847;SDS011;23688;33.130;-117.188;2023-02-28T01:36:20;3.35;;;1.13;;
37847;SDS011;23688;33.130;-117.188;2023-02-28T01:38:47;3.20;;;0.85;;
37847;SDS011;23688;33.130;-117.188;2023-02-28T01:41:17;2.67;;;0.90;;
37847;SDS011;23688;33.130;-117.188;2023-02-28T01:46:14;1.83;;;0.95;;
37847;SDS011;23688;33.130;-117.188;2023-02-28T01:48:42;4.05;;;1.00;;
37847;SDS011;23688;33.130;-117.188;2023-02-28T01:51:17;2.45;;;0.70;;
37847;SDS011;23688;33.130;-117.188;2023-02-28T01:54:08;5.15;;;1.77;;
37847;SDS011;23688;33.130;-117.188;2023-02-28T01:56:46;3.90;;;0.73;;
37847;SDS011;23688;33.130;-117.188;2023-02-28T01:59:21;9.82;;;1.00;;
37847;SDS011;23688;33.130;-117.188;2023-02-28T02:01:52;1.20;;;0.70;;
37847;SDS011;23688;33.130;-117.188;2023-02-28T02:04:19;6.00;;;1.10;;
37847;SDS011;23688;33.130;-117.188;2023-02-28T02:06:49;2.70;;;1.55;;
37847;SDS011;23688;33.130;-117.188;2023-02-28T02:09:17;1.23;;;0.60;;
37847;SDS011;23688;33.130;-117.188;2023-02-28T02:11:43;1.23;;;0.70;;
37847;SDS011;23688;33.130;-117.188;2023-02-28T02:30:59;3.42;;;0.60;;
37847;SDS011;23688;33.130;-117.188;2023-02-28T02:36:48;10.55;;;1.52;;
37847;SDS011;23688;33.130;-117.188;2023-02-28T02:44:59;2.58;;;0.88;;
37847;SDS011;23688;33.130;-117.188;2023-02-28T02:47:30;2.28;;;0.90;;
37847;SDS011;23688;33.130;-117.188;2023-02-28T02:49:59;3.08;;;1.00;;
37847;SDS011;23688;33.130;-117.188;2023-02-28T02:52:33;3.55;;;1.00;;
37847;SDS011;23688;33.130;-117.188;2023-02-28T02:55:04;4.32;;;1.10;;
37847;SDS011;23688;33.130;-117.188;2023-02-28T02:57:38;7.18;;;1.23;;
37847;SDS011;23688;33.130;-117.188;2023-02-28T03:00:11;7.38;;;1.05;;
37847;SDS011;23688;33.130;-117.188;2023-02-28T03:02:40;4.35;;;1.05;;
37847;SDS011;23688;33.130;-117.188;2023-02-28T03:05:11;4.90;;;1.33;;
37847;SDS011;23688;33.130;-117.188;2023-02-28T03:07:44;4.63;;;1.90;;
37847;SDS011;23688;33.130;-117.188;2023-02-28T03:15:58;7.75;;;1.20;;
37847;SDS011;23688;33.130;-117.188;2023-02-28T03:26:39;6.20;;;1.90;;
37847;SDS011;23688;33.130;-117.188;2023-02-28T03:29:15;7.32;;;1.48;;
37847;SDS011;23688;33.130;-117.188;2023-02-28T03:34:42;1.65;;;0.80;;
37847;SDS011;23688;33.130;-117.188;2023-02-28T03:37:16;11.82;;;1.42;;
37847;SDS011;23688;33.130;-117.188;2023-02-28T03:39:50;4.28;;;1.33;;
37847;SDS011;23688;33.130;-117.188;2023-02-28T03:42:27;9.73;;;1.25;;
37847;SDS011;23688;33.130;-117.188;2023-02-28T03:44:58;3.15;;;1.25;;
37847;SDS011;23688;33.130;-117.188;2023-02-28T03:47:39;3.88;;;1.38;;
37847;SDS011;23688;33.130;-117.188;2023-02-28T03:50:22;11.38;;;1.75;;
37847;SDS011;23688;33.130;-117.188;2023-02-28T03:52:53;9.05;;;1.35;;
37847;SDS011;23688;33.130;-117.188;2023-02-28T03:55:37;4.97;;;1.20;;
37847;SDS011;23688;33.130;-117.188;2023-02-28T03:58:33;7.38;;;1.40;;
37847;SDS011;23688;33.130;-117.188;2023-02-28T04:01:24;5.30;;;1.30;;
37847;SDS011;23688;33.130;-117.188;2023-02-28T04:03:53;6.25;;;1.55;;
37847;SDS011;23688;33.130;-117.188;2023-02-28T04:06:21;6.80;;;1.30;;
37847;SDS011;23688;33.130;-117.188;2023-02-28T04:13:53;7.70;;;1.38;;
37847;SDS011;23688;33.130;-117.188;2023-02-28T04:16:21;4.20;;;1.00;;
37847;SDS011;23688;33.130;-117.188;2023-02-28T04:18:47;5.05;;;1.10;;
37847;SDS011;23688;33.130;-117.188;2023-02-28T04:21:13;3.25;;;1.30;;
37847;SDS011;23688;33.130;-117.188;2023-02-28T04:23:40;5.78;;;2.08;;
37847;SDS011;23688;33.130;-117.188;2023-02-28T04:26:06;7.35;;;1.60;;
37847;SDS011;23688;33.130;-117.188;2023-02-28T04:28:33;8.25;;;1.63;;
37847;SDS011;23688;33.130;-117.188;2023-02-28T04:31:01;11.75;;;2.65;;
37847;SDS011;23688;33.130;-117.188;2023-02-28T04:33:29;7.40;;;1.50;;
37847;SDS011;23688;33.130;-117.188;2023-02-28T04:36:00;5.50;;;1.35;;
37847;SDS011;23688;33.130;-117.188;2023-02-28T04:38:29;3.45;;;1.30;;
37847;SDS011;23688;33.130;-117.188;2023-02-28T04:40:58;1.65;;;1.05;;
37847;SDS011;23688;33.130;-117.188;2023-02-28T04:43:26;7.32;;;2.15;;
37847;SDS011;23688;33.130;-117.188;2023-02-28T04:45:53;4.32;;;1.10;;
37847;SDS011;23688;33.130;-117.188;2023-02-28T04:48:24;8.48;;;1.40;;
37847;SDS011;23688;33.130;-117.188;2023-02-28T04:50:51;8.68;;;1.55;;
37847;SDS011;23688;33.130;-117.188;2023-02-28T04:53:18;8.15;;;1.52;;
37847;SDS011;23688;33.130;-117.188;2023-02-28T04:55:44;4.85;;;1.67;;
37847;SDS011;23688;33.130;-117.188;2023-02-28T04:58:11;8.70;;;1.42;;
37847;SDS011;23688;33.130;-117.188;2023-02-28T05:00:38;14.70;;;2.17;;
37847;SDS011;23688;33.130;-117.188;2023-02-28T05:03:05;6.07;;;1.40;;
37847;SDS011;23688;33.130;-117.188;2023-02-28T05:05:31;4.63;;;1.10;;
37847;SDS011;23688;33.130;-117.188;2023-02-28T05:07:58;6.68;;;1.70;;
37847;SDS011;23688;33.130;-117.188;2023-02-28T05:10:24;11.70;;;2.33;;
37847;SDS011;23688;33.130;-117.188;2023-02-28T05:12:50;16.05;;;3.13;;
37847;SDS011;23688;33.130;-117.188;2023-02-28T05:15:17;5.22;;;2.20;;
37847;SDS011;23688;33.130;-117.188;2023-02-28T05:17:43;12.63;;;2.38;;
37847;SDS011;23688;33.130;-117.188;2023-02-28T05:20:10;8.73;;;2.17;;
37847;SDS011;23688;33.130;-117.188;2023-02-28T05:22:37;5.80;;;1.70;;
37847;SDS011;23688;33.130;-117.188;2023-02-28T05:25:04;4.72;;;0.95;;
37847;SDS011;23688;33.130;-117.188;2023-02-28T05:27:30;3.63;;;0.80;;
37847;SDS011;23688;33.130;-117.188;2023-02-28T05:29:57;3.67;;;1.23;;
37847;SDS011;23688;33.130;-117.188;2023-02-28T05:32:24;6.88;;;1.70;;
37847;SDS011;23688;33.130;-117.188;2023-02-28T05:34:50;6.47;;;1.65;;
37847;SDS011;23688;33.130;-117.188;2023-02-28T05:37:17;6.57;;;1.70;;
37847;SDS011;23688;33.130;-117.188;2023-02-28T05:39:46;7.07;;;1.58;;
37847;SDS011;23688;33.130;-117.188;2023-02-28T05:42:13;6.68;;;1.92;;
37847;SDS011;23688;33.130;-117.188;2023-02-28T05:44:39;6.88;;;2.10;;
37847;SDS011;23688;33.130;-117.188;2023-02-28T05:47:07;5.20;;;2.10;;
37847;SDS011;23688;33.130;-117.188;2023-02-28T05:49:33;6.70;;;2.15;;
37847;SDS011;23688;33.130;-117.188;2023-02-28T05:52:00;9.38;;;2.00;;
37847;SDS011;23688;33.130;-117.188;2023-02-28T05:54:26;9.55;;;2.83;;
37847;SDS011;23688;33.130;-117.188;2023-02-28T05:56:52;7.72;;;1.90;;
37847;SDS011;23688;33.130;-117.188;2023-02-28T05:59:18;8.15;;;2.08;;
37847;SDS011;23688;33.130;-117.188;2023-02-28T06:01:45;13.13;;;1.92;;
37847;SDS011;23688;33.130;-117.188;2023-02-28T06:04:15;9.93;;;2.10;;
37847;SDS011;23688;33.130;-117.188;2023-02-28T06:06:44;6.78;;;1.67;;
37847;SDS011;23688;33.130;-117.188;2023-02-28T06:09:15;6.97;;;2.10;;
37847;SDS011;23688;33.130;-117.188;2023-02-28T06:11:42;5.22;;;2.00;;
37847;SDS011;23688;33.130;-117.188;2023-02-28T06:14:16;6.20;;;1.80;;
37847;SDS011;23688;33.130;-117.188;2023-02-28T06:16:44;6.78;;;1.90;;
37847;SDS011;23688;33.130;-117.188;2023-02-28T06:19:10;6.68;;;1.75;;
37847;SDS011;23688;33.130;-117.188;2023-02-28T06:21:40;8.70;;;1.80;;
37847;SDS011;23688;33.130;-117.188;2023-02-28T06:24:08;14.00;;;2.38;;
37847;SDS011;23688;33.130;-117.188;2023-02-28T06:26:34;14.02;;;1.98;;
37847;SDS011;23688;33.130;-117.188;2023-02-28T06:29:01;9.73;;;1.27;;
37847;SDS011;23688;33.130;-117.188;2023-02-28T06:31:28;2.47;;;1.30;;
37847;SDS011;23688;33.130;-117.188;2023-02-28T06:33:54;5.60;;;1.77;;
37847;SDS011;23688;33.130;-117.188;2023-02-28T06:36:21;3.75;;;1.15;;
37847;SDS011;23688;33.130;-117.188;2023-02-28T06:38:48;7.50;;;1.50;;
37847;SDS011;23688;33.130;-117.188;2023-02-28T06:41:21;7.60;;;1.70;;
37847;SDS011;23688;33.130;-117.188;2023-02-28T06:43:48;13.02;;;1.58;;
37847;SDS011;23688;33.130;-117.188;2023-02-28T06:46:15;4.05;;;1.33;;
37847;SDS011;23688;33.130;-117.188;2023-02-28T06:48:44;6.38;;;1.50;;
37847;SDS011;23688;33.130;-117.188;2023-02-28T06:51:14;3.67;;;1.40;;
37847;SDS011;23688;33.130;-117.188;2023-02-28T06:53:42;4.28;;;1.02;;
37847;SDS011;23688;33.130;-117.188;2023-02-28T06:56:10;2.78;;;1.00;;
37847;SDS011;23688;33.130;-117.188;2023-02-28T06:58:38;8.68;;;2.47;;
37847;SDS011;23688;33.130;-117.188;2023-02-28T07:01:05;2.20;;;0.93;;
37847;SDS011;23688;33.130;-117.188;2023-02-28T07:03:32;7.80;;;1.75;;
37847;SDS011;23688;33.130;-117.188;2023-02-28T07:06:01;4.10;;;1.30;;
37847;SDS011;23688;33.130;-117.188;2023-02-28T07:08:29;3.13;;;0.90;;
37847;SDS011;23688;33.130;-117.188;2023-02-28T07:10:57;8.68;;;1.58;;
37847;SDS011;23688;33.130;-117.188;2023-02-28T07:13:23;5.15;;;1.20;;
37847;SDS011;23688;33.130;-117.188;2023-02-28T07:15:57;3.20;;;1.15;;
37847;SDS011;23688;33.130;-117.188;2023-02-28T07:18:24;5.32;;;0.90;;
37847;SDS011;23688;33.130;-117.188;2023-02-28T07:20:52;3.10;;;1.08;;
37847;SDS011;23688;33.130;-117.188;2023-02-28T07:23:18;6.85;;;1.15;;
37847;SDS011;23688;33.130;-117.188;2023-02-28T07:25:45;3.58;;;1.38;;
37847;SDS011;23688;33.130;-117.188;2023-02-28T07:28:12;4.05;;;1.10;;
37847;SDS011;23688;33.130;-117.188;2023-02-28T07:30:39;10.77;;;1.15;;
37847;SDS011;23688;33.130;-117.188;2023-02-28T07:33:06;6.32;;;1.50;;
37847;SDS011;23688;33.130;-117.188;2023-02-28T07:35:33;8.52;;;1.55;;
37847;SDS011;23688;33.130;-117.188;2023-02-28T07:37:59;2.33;;;1.00;;
37847;SDS011;23688;33.130;-117.188;2023-02-28T07:40:26;4.82;;;1.17;;
37847;SDS011;23688;33.130;-117.188;2023-02-28T07:42:52;3.65;;;1.15;;
37847;SDS011;23688;33.130;-117.188;2023-02-28T07:45:18;4.28;;;1.70;;
37847;SDS011;23688;33.130;-117.188;2023-02-28T07:47:45;3.97;;;1.02;;
37847;SDS011;23688;33.130;-117.188;2023-02-28T07:50:12;8.45;;;1.20;;
37847;SDS011;23688;33.130;-117.188;2023-02-28T07:55:06;5.60;;;1.50;;
37847;SDS011;23688;33.130;-117.188;2023-02-28T07:57:34;2.85;;;0.90;;
37847;SDS011;23688;33.130;-117.188;2023-02-28T08:00:02;5.15;;;1.23;;
37847;SDS011;23688;33.130;-117.188;2023-02-28T08:02:30;5.45;;;1.00;;
37847;SDS011;23688;33.130;-117.188;2023-02-28T08:04:56;1.88;;;0.80;;
37847;SDS011;23688;33.130;-117.188;2023-02-28T08:07:22;9.98;;;1.00;;
37847;SDS011;23688;33.130;-117.188;2023-02-28T08:09:48;7.93;;;1.10;;
37847;SDS011;23688;33.130;-117.188;2023-02-28T08:12:15;0.73;;;0.63;;
37847;SDS011;23688;33.130;-117.188;2023-02-28T08:14:41;4.47;;;1.10;;
37847;SDS011;23688;33.130;-117.188;2023-02-28T08:17:08;2.92;;;0.98;;
37847;SDS011;23688;33.130;-117.188;2023-02-28T08:19:35;9.30;;;1.15;;
37847;SDS011;23688;33.130;-117.188;2023-02-28T08:22:02;3.42;;;1.08;;
37847;SDS011;23688;33.130;-117.188;2023-02-28T08:24:28;2.70;;;0.73;;
37847;SDS011;23688;33.130;-117.188;2023-02-28T08:26:55;4.25;;;1.25;;
37847;SDS011;23688;33.130;-117.188;2023-02-28T08:29:22;5.22;;;1.00;;
37847;SDS011;23688;33.130;-117.188;2023-02-28T08:31:48;7.75;;;0.98;;
37847;SDS011;23688;33.130;-117.188;2023-02-28T08:34:15;3.60;;;0.95;;
37847;SDS011;23688;33.130;-117.188;2023-02-28T08:36:42;7.53;;;0.85;;
37847;SDS011;23688;33.130;-117.188;2023-02-28T08:39:11;6.28;;;1.20;;
37847;SDS011;23688;33.130;-117.188;2023-02-28T08:41:38;3.33;;;0.93;;
37847;SDS011;23688;33.130;-117.188;2023-02-28T08:44:04;8.35;;;1.35;;
37847;SDS011;23688;33.130;-117.188;2023-02-28T08:46:31;1.98;;;1.17;;
37847;SDS011;23688;33.130;-117.188;2023-02-28T08:48:57;2.78;;;1.10;;
37847;SDS011;23688;33.130;-117.188;2023-02-28T08:51:27;2.38;;;0.98;;
37847;SDS011;23688;33.130;-117.188;2023-02-28T08:53:58;2.58;;;1.42;;
37847;SDS011;23688;33.130;-117.188;2023-02-28T08:56:26;6.05;;;1.00;;
37847;SDS011;23688;33.130;-117.188;2023-02-28T08:58:54;4.43;;;1.33;;
37847;SDS011;23688;33.130;-117.188;2023-02-28T09:01:26;7.57;;;0.90;;
37847;SDS011;23688;33.130;-117.188;2023-02-28T09:03:54;6.70;;;1.67;;
37847;SDS011;23688;33.130;-117.188;2023-02-28T09:06:22;4.38;;;1.13;;
37847;SDS011;23688;33.130;-117.188;2023-02-28T09:08:50;6.68;;;1.13;;
37847;SDS011;23688;33.130;-117.188;2023-02-28T09:11:17;3.85;;;1.00;;
37847;SDS011;23688;33.130;-117.188;2023-02-28T09:13:45;6.60;;;1.40;;
37847;SDS011;23688;33.130;-117.188;2023-02-28T09:16:13;6.10;;;2.00;;
37847;SDS011;23688;33.130;-117.188;2023-02-28T09:18:41;5.28;;;0.95;;
37847;SDS011;23688;33.130;-117.188;2023-02-28T09:21:08;4.40;;;1.38;;
37847;SDS011;23688;33.130;-117.188;2023-02-28T09:23:39;2.45;;;0.80;;
37847;SDS011;23688;33.130;-117.188;2023-02-28T09:26:06;3.90;;;0.80;;
37847;SDS011;23688;33.130;-117.188;2023-02-28T09:28:33;4.20;;;1.00;;
37847;SDS011;23688;33.130;-117.188;2023-02-28T09:30:59;3.95;;;1.15;;
37847;SDS011;23688;33.130;-117.188;2023-02-28T09:33:26;5.22;;;1.65;;
37847;SDS011;23688;33.130;-117.188;2023-02-28T09:35:57;6.68;;;1.10;;
37847;SDS011;23688;33.130;-117.188;2023-02-28T09:38:25;8.02;;;1.10;;
37847;SDS011;23688;33.130;-117.188;2023-02-28T09:43:22;2.97;;;1.20;;
37847;SDS011;23688;33.130;-117.188;2023-02-28T09:48:32;3.83;;;1.30;;
37847;SDS011;23688;33.130;-117.188;2023-02-28T09:53:42;4.10;;;1.67;;
37847;SDS011;23688;33.130;-117.188;2023-02-28T09:56:10;2.80;;;1.70;;
37847;SDS011;23688;33.130;-117.188;2023-02-28T10:09:42;4.63;;;1.40;;
37847;SDS011;23688;33.130;-117.188;2023-02-28T10:12:12;5.05;;;2.58;;
37847;SDS011;23688;33.130;-117.188;2023-02-28T10:14:42;7.97;;;2.88;;
37847;SDS011;23688;33.130;-117.188;2023-02-28T10:17:13;7.47;;;3.08;;
37847;SDS011;23688;33.130;-117.188;2023-02-28T10:25:21;4.90;;;2.08;;
37847;SDS011;23688;33.130;-117.188;2023-02-28T10:28:00;4.03;;;1.90;;
37847;SDS011;23688;33.130;-117.188;2023-02-28T10:30:39;4.63;;;2.30;;
37847;SDS011;23688;33.130;-117.188;2023-02-28T10:33:13;3.78;;;2.47;;
37847;SDS011;23688;33.130;-117.188;2023-02-28T10:35:52;6.95;;;2.53;;
37847;SDS011;23688;33.130;-117.188;2023-02-28T10:38:21;6.32;;;2.22;;
37847;SDS011;23688;33.130;-117.188;2023-02-28T10:41:02;4.90;;;2.60;;
37847;SDS011;23688;33.130;-117.188;2023-02-28T10:43:29;6.10;;;2.80;;
37847;SDS011;23688;33.130;-117.188;2023-02-28T10:46:00;7.32;;;2.75;;
37847;SDS011;23688;33.130;-117.188;2023-02-28T10:48:32;6.22;;;3.22;;
37847;SDS011;23688;33.130;-117.188;2023-02-28T10:50:59;8.07;;;2.92;;
37847;SDS011;23688;33.130;-117.188;2023-02-28T10:53:37;4.45;;;2.75;;
37847;SDS011;23688;33.130;-117.188;2023-02-28T10:58:48;6.50;;;3.22;;
37847;SDS011;23688;33.130;-117.188;2023-02-28T11:01:35;11.93;;;3.00;;
37847;SDS011;23688;33.130;-117.188;2023-02-28T11:07:04;12.18;;;3.30;;
37847;SDS011;23688;33.130;-117.188;2023-02-28T11:09:44;7.20;;;2.47;;
37847;SDS011;23688;33.130;-117.188;2023-02-28T11:12:21;6.82;;;2.53;;
37847;SDS011;23688;33.130;-117.188;2023-02-28T11:14:58;5.65;;;2.65;;
37847;SDS011;23688;33.130;-117.188;2023-02-28T11:17:28;9.02;;;2.72;;
37847;SDS011;23688;33.130;-117.188;2023-02-28T11:20:00;8.90;;;2.90;;
37847;SDS011;23688;33.130;-117.188;2023-02-28T11:22:35;6.13;;;3.28;;
37847;SDS011;23688;33.130;-117.188;2023-02-28T11:25:12;8.50;;;3.00;;
37847;SDS011;23688;33.130;-117.188;2023-02-28T11:27:51;8.82;;;3.00;;
37847;SDS011;23688;33.130;-117.188;2023-02-28T11:32:59;10.75;;;3.53;;
37847;SDS011;23688;33.130;-117.188;2023-02-28T11:35:31;13.65;;;3.60;;
37847;SDS011;23688;33.130;-117.188;2023-02-28T11:38:04;8.80;;;3.05;;
37847;SDS011;23688;33.130;-117.188;2023-02-28T11:45:57;7.45;;;3.35;;
37847;SDS011;23688;33.130;-117.188;2023-02-28T11:57:03;22.77;;;5.65;;
37847;SDS011;23688;33.130;-117.188;2023-02-28T12:08:15;20.00;;;6.90;;
37847;SDS011;23688;33.130;-117.188;2023-02-28T12:13:43;16.60;;;6.30;;
37847;SDS011;23688;33.130;-117.188;2023-02-28T12:16:24;14.85;;;5.55;;
37847;SDS011;23688;33.130;-117.188;2023-02-28T12:19:17;17.73;;;6.68;;
37847;SDS011;23688;33.130;-117.188;2023-02-28T12:27:49;17.10;;;7.05;;
37847;SDS011;23688;33.130;-117.188;2023-02-28T12:30:28;15.18;;;6.75;;
37847;SDS011;23688;33.130;-117.188;2023-02-28T12:33:06;11.23;;;5.50;;
37847;SDS011;23688;33.130;-117.188;2023-02-28T12:35:42;11.75;;;5.43;;
37847;SDS011;23688;33.130;-117.188;2023-02-28T12:38:26;10.23;;;4.90;;
37847;SDS011;23688;33.130;-117.188;2023-02-28T12:41:00;13.83;;;5.80;;
37847;SDS011;23688;33.130;-117.188;2023-02-28T12:43:53;17.13;;;6.60;;
37847;SDS011;23688;33.130;-117.188;2023-02-28T12:46:33;17.10;;;6.43;;
37847;SDS011;23688;33.130;-117.188;2023-02-28T12:49:06;11.60;;;5.60;;
37847;SDS011;23688;33.130;-117.188;2023-02-28T12:51:36;13.05;;;5.60;;
37847;SDS011;23688;33.130;-117.188;2023-02-28T12:56:53;15.55;;;7.72;;
37847;SDS011;23688;33.130;-117.188;2023-02-28T12:59:31;22.35;;;8.57;;
37847;SDS011;23688;33.130;-117.188;2023-02-28T13:02:24;24.67;;;9.15;;
37847;SDS011;23688;33.130;-117.188;2023-02-28T13:10:46;17.58;;;7.30;;
37847;SDS011;23688;33.130;-117.188;2023-02-28T13:13:26;18.13;;;6.97;;
37847;SDS011;23688;33.130;-117.188;2023-02-28T13:16:14;20.48;;;8.00;;
37847;SDS011;23688;33.130;-117.188;2023-02-28T13:18:44;19.90;;;6.60;;
37847;SDS011;23688;33.130;-117.188;2023-02-28T13:21:23;19.67;;;6.72;;
37847;SDS011;23688;33.130;-117.188;2023-02-28T13:32:41;10.60;;;4.50;;
37847;SDS011;23688;33.130;-117.188;2023-02-28T13:34:41;10.60;;;3.80;;
37847;SDS011;23688;33.130;-117.188;2023-02-28T13:40:22;16.08;;;2.97;;
37847;SDS011;23688;33.130;-117.188;2023-02-28T13:42:55;7.60;;;1.57;;
37847;SDS011;23688;33.130;-117.188;2023-02-28T13:45:23;11.73;;;1.90;;
37847;SDS011;23688;33.130;-117.188;2023-02-28T13:47:56;7.97;;;2.03;;
37847;SDS011;23688;33.130;-117.188;2023-02-28T13:55:46;13.15;;;1.67;;
37847;SDS011;23688;33.130;-117.188;2023-02-28T14:07:25;13.90;;;3.30;;
37847;SDS011;23688;33.130;-117.188;2023-02-28T14:10:06;18.83;;;3.03;;
37847;SDS011;23688;33.130;-117.188;2023-02-28T14:12:53;22.60;;;2.60;;
37847;SDS011;23688;33.130;-117.188;2023-02-28T14:15:35;13.20;;;2.72;;
37847;SDS011;23688;33.130;-117.188;2023-02-28T14:20:42;21.02;;;3.00;;
37847;SDS011;23688;33.130;-117.188;2023-02-28T14:23:14;12.30;;;3.20;;
37847;SDS011;23688;33.130;-117.188;2023-02-28T14:37:02;16.23;;;6.15;;
37847;SDS011;23688;33.130;-117.188;2023-02-28T14:39:30;17.42;;;7.00;;
37847;SDS011;23688;33.130;-117.188;2023-02-28T14:42:00;22.50;;;7.93;;
37847;SDS011;23688;33.130;-117.188;2023-02-28T14:44:30;21.65;;;8.30;;
37847;SDS011;23688;33.130;-117.188;2023-02-28T14:47:01;26.83;;;8.15;;
37847;SDS011;23688;33.130;-117.188;2023-02-28T14:54:44;23.25;;;5.95;;
37847;SDS011;23688;33.130;-117.188;2023-02-28T14:57:27;21.40;;;5.68;;
37847;SDS011;23688;33.130;-117.188;2023-02-28T15:02:46;18.08;;;5.38;;
37847;SDS011;23688;33.130;-117.188;2023-02-28T15:12:36;15.10;;;5.20;;
37847;SDS011;23688;33.130;-117.188;2023-02-28T15:15:05;25.02;;;6.38;;
37847;SDS011;23688;33.130;-117.188;2023-02-28T15:17:33;27.17;;;6.88;;
37847;SDS011;23688;33.130;-117.188;2023-02-28T15:20:00;20.30;;;6.28;;
37847;SDS011;23688;33.130;-117.188;2023-02-28T15:22:29;24.42;;;6.40;;
37847;SDS011;23688;33.130;-117.188;2023-02-28T15:25:01;17.00;;;6.65;;
37847;SDS011;23688;33.130;-117.188;2023-02-28T15:27:32;17.40;;;6.32;;
37847;SDS011;23688;33.130;-117.188;2023-02-28T15:30:06;18.17;;;8.02;;
37847;SDS011;23688;33.130;-117.188;2023-02-28T15:32:38;22.25;;;7.60;;
37847;SDS011;23688;33.130;-117.188;2023-02-28T15:35:26;19.85;;;6.90;;
37847;SDS011;23688;33.130;-117.188;2023-02-28T15:37:56;20.42;;;7.20;;
37847;SDS011;23688;33.130;-117.188;2023-02-28T15:40:41;19.45;;;7.50;;
37847;SDS011;23688;33.130;-117.188;2023-02-28T15:45:52;20.88;;;5.82;;
37847;SDS011;23688;33.130;-117.188;2023-02-28T15:50:56;10.38;;;4.60;;
37847;SDS011;23688;33.130;-117.188;2023-02-28T15:53:31;12.02;;;4.90;;
37847;SDS011;23688;33.130;-117.188;2023-02-28T15:56:03;18.48;;;5.13;;
37847;SDS011;23688;33.130;-117.188;2023-02-28T15:58:32;8.52;;;4.47;;
37847;SDS011;23688;33.130;-117.188;2023-02-28T16:01:06;13.55;;;5.68;;
37847;SDS011;23688;33.130;-117.188;2023-02-28T16:03:46;12.35;;;4.70;;
37847;SDS011;23688;33.130;-117.188;2023-02-28T16:08:43;12.27;;;4.70;;
37847;SDS011;23688;33.130;-117.188;2023-02-28T16:11:12;15.13;;;5.20;;
37847;SDS011;23688;33.130;-117.188;2023-02-28T16:13:38;15.52;;;5.15;;
37847;SDS011;23688;33.130;-117.188;2023-02-28T16:16:04;15.18;;;4.25;;
37847;SDS011;23688;33.130;-117.188;2023-02-28T16:18:31;18.77;;;4.13;;
37847;SDS011;23688;33.130;-117.188;2023-02-28T16:20:57;12.10;;;4.10;;
37847;SDS011;23688;33.130;-117.188;2023-02-28T16:23:24;11.02;;;3.83;;
37847;SDS011;23688;33.130;-117.188;2023-02-28T16:25:50;15.57;;;3.22;;
37847;SDS011;23688;33.130;-117.188;2023-02-28T16:28:35;14.68;;;2.38;;
37847;SDS011;23688;33.130;-117.188;2023-02-28T16:31:05;11.23;;;1.85;;
37847;SDS011;23688;33.130;-117.188;2023-02-28T16:33:33;13.00;;;2.38;;
37847;SDS011;23688;33.130;-117.188;2023-02-28T16:35:59;6.22;;;1.73;;
37847;SDS011;23688;33.130;-117.188;2023-02-28T16:38:39;10.05;;;3.10;;
37847;SDS011;23688;33.130;-117.188;2023-02-28T16:41:07;17.75;;;2.08;;
37847;SDS011;23688;33.130;-117.188;2023-02-28T16:43:41;5.43;;;1.58;;
37847;SDS011;23688;33.130;-117.188;2023-02-28T16:46:11;6.47;;;1.30;;
37847;SDS011;23688;33.130;-117.188;2023-02-28T16:48:38;7.13;;;1.58;;
37847;SDS011;23688;33.130;-117.188;2023-02-28T16:51:07;3.03;;;1.40;;
37847;SDS011;23688;33.130;-117.188;2023-02-28T16:53:38;4.75;;;1.50;;
37847;SDS011;23688;33.130;-117.188;2023-02-28T16:56:04;11.52;;;2.28;;
37847;SDS011;23688;33.130;-117.188;2023-02-28T16:58:32;8.85;;;1.60;;
37847;SDS011;23688;33.130;-117.188;2023-02-28T17:01:01;6.35;;;1.83;;
37847;SDS011;23688;33.130;-117.188;2023-02-28T17:03:28;11.23;;;1.63;;
37847;SDS011;23688;33.130;-117.188;2023-02-28T17:05:55;8.30;;;1.77;;
37847;SDS011;23688;33.130;-117.188;2023-02-28T17:08:21;12.43;;;2.20;;
37847;SDS011;23688;33.130;-117.188;2023-02-28T17:10:48;7.80;;;1.90;;
37847;SDS011;23688;33.130;-117.188;2023-02-28T17:13:14;12.93;;;2.10;;
37847;SDS011;23688;33.130;-117.188;2023-02-28T17:15:40;6.97;;;1.35;;
37847;SDS011;23688;33.130;-117.188;2023-02-28T17:18:08;8.00;;;1.80;;
37847;SDS011;23688;33.130;-117.188;2023-02-28T17:20:39;5.45;;;1.50;;
37847;SDS011;23688;33.130;-117.188;2023-02-28T17:23:07;3.90;;;1.33;;
37847;SDS011;23688;33.130;-117.188;2023-02-28T17:25:36;5.18;;;1.90;;
37847;SDS011;23688;33.130;-117.188;2023-02-28T17:28:03;7.28;;;1.35;;
37847;SDS011;23688;33.130;-117.188;2023-02-28T17:30:31;7.10;;;1.50;;